createdAt,value
2019-02-12T00:00:16.830Z,4.20
2019-02-12T00:02:45.393Z,4.10
2019-02-12T00:05:14.040Z,4.10
2019-02-12T00:07:42.603Z,4.10
2019-02-12T00:10:11.304Z,4.10
2019-02-12T00:12:39.859Z,4.10
2019-02-12T00:15:08.702Z,4.00
2019-02-12T00:17:37.265Z,4.10
2019-02-12T00:20:07.315Z,4.10
2019-02-12T00:22:35.939Z,4.10
2019-02-12T00:25:06.819Z,4.10
2019-02-12T00:27:35.806Z,4.10
2019-02-12T00:30:10.058Z,4.20
2019-02-12T00:32:38.915Z,4.10
2019-02-12T00:35:08.641Z,4.10
2019-02-12T00:37:37.199Z,4.00
2019-02-12T00:40:08.995Z,4.00
2019-02-12T00:42:37.544Z,4.00
2019-02-12T00:45:09.115Z,4.00
2019-02-12T00:47:37.737Z,4.00
2019-02-12T00:50:10.992Z,4.00
2019-02-12T00:52:39.687Z,3.90
2019-02-12T00:55:09.407Z,3.90
2019-02-12T00:57:37.959Z,3.90
2019-02-12T01:00:09.798Z,3.90
2019-02-12T01:02:41.367Z,4.00
2019-02-12T01:05:10.061Z,4.00
2019-02-12T01:07:38.743Z,4.00
2019-02-12T01:10:10.241Z,4.00
2019-02-12T01:12:39.408Z,4.00
2019-02-12T01:15:13.729Z,4.00
2019-02-12T01:17:42.351Z,4.00
2019-02-12T01:20:13.403Z,4.00
2019-02-12T01:22:42.069Z,4.00
2019-02-12T01:25:10.839Z,4.00
2019-02-12T01:27:40.864Z,4.00
2019-02-12T01:30:17.073Z,4.00
2019-02-12T01:32:46.288Z,4.00
2019-02-12T01:35:14.992Z,4.00
2019-02-12T01:37:43.551Z,4.00
2019-02-12T01:40:13.066Z,4.00
2019-02-12T01:42:41.655Z,4.00
2019-02-12T01:45:11.820Z,4.00
2019-02-12T01:47:40.384Z,4.00
2019-02-12T01:50:11.398Z,3.90
2019-02-12T01:52:39.951Z,3.90
2019-02-12T01:55:08.660Z,3.90
2019-02-12T01:57:37.219Z,3.90
2019-02-12T02:00:09.213Z,3.90
2019-02-12T02:02:37.780Z,3.90
2019-02-12T02:05:08.780Z,3.90
2019-02-12T02:07:37.726Z,3.90
2019-02-12T02:10:09.682Z,3.90
2019-02-12T02:12:38.311Z,4.00
2019-02-12T02:15:09.716Z,4.00
2019-02-12T02:17:39.918Z,4.10
2019-02-12T02:20:10.971Z,4.10
2019-02-12T02:22:40.396Z,4.00
2019-02-12T02:25:11.281Z,4.00
2019-02-12T02:27:39.923Z,4.00
2019-02-12T02:30:11.080Z,4.00
2019-02-12T02:32:39.716Z,4.00
2019-02-12T02:35:08.408Z,4.10
2019-02-12T02:37:37.468Z,4.10
2019-02-12T02:40:08.863Z,4.10
2019-02-12T02:42:39.139Z,4.10
2019-02-12T02:45:10.237Z,4.10
2019-02-12T02:47:38.862Z,4.10
2019-02-12T02:50:09.866Z,4.10
2019-02-12T02:52:38.744Z,4.10
2019-02-12T02:55:14.522Z,4.10
2019-02-12T02:57:43.307Z,4.10
2019-02-12T03:00:12.595Z,4.10
2019-02-12T03:02:41.507Z,4.10
2019-02-12T03:05:11.738Z,4.10
2019-02-12T03:07:40.589Z,4.10
2019-02-12T03:10:10.883Z,4.10
2019-02-12T03:12:39.536Z,4.00
2019-02-12T03:15:10.534Z,4.00
2019-02-12T03:17:39.592Z,4.00
2019-02-12T03:20:12.473Z,4.00
2019-02-12T03:22:41.645Z,4.00
2019-02-12T03:25:10.943Z,4.00
2019-02-12T03:27:39.601Z,3.90
2019-02-12T03:30:10.796Z,3.90
2019-02-12T03:32:39.463Z,3.90
2019-02-12T03:35:09.853Z,3.90
2019-02-12T03:37:38.760Z,3.90
2019-02-12T03:40:10.261Z,3.90
2019-02-12T03:42:38.950Z,3.90
2019-02-12T03:45:10.701Z,4.00
2019-02-12T03:47:39.429Z,4.00
2019-02-12T03:50:12.195Z,4.00
2019-02-12T03:52:41.098Z,4.00
2019-02-12T03:55:12.207Z,4.00
2019-02-12T03:57:41.458Z,4.00
2019-02-12T04:00:16.484Z,4.00
2019-02-12T04:03:07.181Z,3.90
2019-02-12T04:05:37.572Z,3.90
2019-02-12T04:08:06.608Z,3.90
2019-02-12T04:10:35.492Z,3.80
2019-02-12T04:13:04.033Z,3.80
2019-02-12T04:15:32.723Z,3.80
2019-02-12T04:18:01.560Z,3.70
2019-02-12T04:20:30.434Z,3.70
2019-02-12T04:22:58.988Z,3.60
2019-02-12T04:25:27.811Z,3.60
2019-02-12T04:27:56.499Z,3.60
2019-02-12T04:30:25.058Z,3.60
2019-02-12T04:32:53.867Z,3.60
2019-02-12T04:35:22.484Z,3.50
2019-02-12T04:37:51.237Z,3.60
2019-02-12T04:40:19.791Z,3.60
2019-02-12T04:42:48.504Z,3.60
2019-02-12T04:45:17.131Z,3.60
2019-02-12T04:47:46.079Z,3.60
2019-02-12T04:50:15.759Z,3.60
2019-02-12T04:52:44.318Z,3.60
2019-02-12T04:55:13.260Z,3.60
2019-02-12T04:57:41.945Z,3.60
2019-02-12T05:00:13.521Z,3.60
2019-02-12T05:02:43.728Z,3.60
2019-02-12T05:05:12.590Z,3.60
2019-02-12T05:07:41.296Z,3.60
2019-02-12T05:10:21.756Z,3.60
2019-02-12T05:12:50.545Z,3.60
2019-02-12T05:15:19.112Z,3.60
2019-02-12T05:17:48.094Z,3.60
2019-02-12T05:20:16.669Z,3.60
2019-02-12T05:22:45.392Z,3.60
2019-02-12T05:25:14.019Z,3.60
2019-02-12T05:27:42.891Z,3.60
2019-02-12T05:30:13.764Z,3.60
2019-02-12T05:32:42.711Z,3.60
2019-02-12T05:35:11.312Z,3.60
2019-02-12T05:37:40.050Z,3.50
2019-02-12T05:40:12.118Z,3.50
2019-02-12T05:42:40.925Z,3.50
2019-02-12T05:45:13.452Z,3.60
2019-02-12T05:47:42.560Z,3.60
2019-02-12T05:50:13.684Z,3.60
2019-02-12T05:52:42.540Z,3.60
2019-02-12T05:55:11.409Z,3.60
2019-02-12T05:57:40.227Z,3.60
2019-02-12T06:00:15.807Z,3.60
2019-02-12T06:02:44.738Z,3.60
2019-02-12T06:05:16.473Z,3.60
2019-02-12T06:07:45.190Z,3.50
2019-02-12T06:10:13.752Z,3.50
2019-02-12T06:12:42.569Z,3.50
2019-02-12T06:15:11.188Z,3.50
2019-02-12T06:17:40.146Z,3.50
2019-02-12T06:20:09.258Z,3.60
2019-02-12T06:22:37.894Z,3.60
2019-02-12T06:25:07.899Z,3.60
2019-02-12T06:27:37.036Z,3.70
2019-02-12T06:30:08.814Z,3.70
2019-02-12T06:32:37.582Z,3.70
2019-02-12T06:35:08.716Z,3.70
2019-02-12T06:37:37.623Z,3.70
2019-02-12T06:40:09.340Z,3.70
2019-02-12T06:42:37.974Z,3.80
2019-02-12T06:45:09.347Z,3.80
2019-02-12T06:47:37.978Z,3.80
2019-02-12T06:50:09.810Z,3.80
2019-02-12T06:52:40.334Z,3.80
2019-02-12T06:55:10.227Z,3.80
2019-02-12T06:57:39.114Z,3.80
2019-02-12T07:00:12.542Z,3.80
2019-02-12T07:03:03.986Z,3.90
2019-02-12T07:05:32.922Z,3.90
2019-02-12T07:08:10.986Z,3.90
2019-02-12T07:10:39.570Z,3.90
2019-02-12T07:13:22.971Z,3.90
2019-02-12T07:15:51.672Z,4.00
2019-02-12T07:18:35.649Z,4.00
2019-02-12T07:21:22.552Z,4.00
2019-02-12T07:24:09.395Z,4.00
2019-02-12T07:26:53.722Z,4.00
2019-02-12T07:29:31.365Z,4.00
2019-02-12T07:32:05.882Z,4.00
2019-02-12T07:34:40.480Z,4.00
2019-02-12T07:37:17.743Z,4.00
2019-02-12T07:40:15.199Z,4.10
2019-02-12T07:42:47.064Z,4.10
2019-02-12T07:45:30.652Z,4.10
2019-02-12T07:48:11.229Z,4.10
2019-02-12T07:51:16.297Z,4.20
2019-02-12T07:53:48.025Z,4.20
2019-02-12T07:56:35.168Z,4.20
2019-02-12T07:59:24.794Z,4.30
2019-02-12T08:02:05.714Z,4.30
2019-02-12T08:04:42.990Z,4.30
2019-02-12T08:07:18.966Z,4.30
2019-02-12T08:10:11.727Z,4.30
2019-02-12T08:13:01.646Z,4.30
2019-02-12T08:16:08.386Z,4.30
2019-02-12T08:19:05.662Z,4.30
2019-02-12T08:21:52.642Z,4.30
2019-02-12T08:24:35.595Z,4.40
2019-02-12T08:27:13.234Z,4.40
2019-02-12T08:29:47.556Z,4.50
2019-02-12T08:32:31.012Z,4.50
2019-02-12T08:35:20.678Z,4.60
2019-02-12T08:38:13.438Z,4.60
2019-02-12T08:41:10.590Z,4.70
2019-02-12T08:43:54.651Z,4.80
2019-02-12T08:46:31.932Z,4.80
2019-02-12T08:49:12.513Z,4.90
2019-02-12T08:51:53.464Z,4.90
2019-02-12T08:54:43.059Z,5.00
2019-02-12T08:57:29.552Z,5.00
2019-02-12T09:00:03.714Z,5.00
2019-02-12T09:02:53.651Z,5.00
2019-02-12T09:05:41.736Z,5.00
2019-02-12T09:08:23.074Z,5.00
2019-02-12T09:10:54.699Z,5.10
2019-02-12T09:13:26.590Z,5.10
2019-02-12T09:16:31.726Z,5.00
2019-02-12T09:19:12.339Z,5.10
2019-02-12T09:22:09.740Z,5.20
2019-02-12T09:25:02.478Z,5.30
2019-02-12T09:27:43.267Z,5.30
2019-02-12T09:30:23.872Z,5.30
2019-02-12T09:32:55.802Z,5.40
2019-02-12T09:35:48.788Z,5.40
2019-02-12T09:38:26.634Z,5.40
2019-02-12T09:40:58.266Z,5.50
2019-02-12T09:43:46.854Z,5.50
2019-02-12T09:46:27.204Z,5.90
2019-02-12T09:49:01.600Z,6.10
2019-02-12T09:51:33.231Z,6.00
2019-02-12T09:54:19.889Z,6.00
2019-02-12T09:57:06.620Z,6.00
2019-02-12T10:00:08.253Z,5.90
2019-02-12T10:02:45.688Z,5.90
2019-02-12T10:05:35.539Z,5.90
2019-02-12T10:08:10.636Z,5.80
2019-02-12T10:10:55.182Z,5.80
2019-02-12T10:13:29.774Z,6.00
2019-02-12T10:16:04.494Z,6.20
2019-02-12T10:18:48.207Z,6.20
2019-02-12T10:21:29.076Z,6.20
2019-02-12T10:24:20.047Z,6.10
2019-02-12T10:26:55.775Z,6.10
2019-02-12T10:29:32.873Z,6.10
2019-02-12T10:32:08.521Z,6.10
2019-02-12T10:34:31.196Z,6.00
2019-02-12T10:36:59.835Z,6.00
2019-02-12T10:39:28.799Z,6.00
2019-02-12T10:41:57.564Z,6.10
2019-02-12T10:44:26.127Z,6.20
2019-02-12T10:46:54.856Z,6.30
2019-02-12T10:49:23.488Z,6.30
2019-02-12T10:51:52.644Z,6.30
2019-02-12T10:54:27.779Z,6.40
2019-02-12T10:56:51.541Z,6.40
2019-02-12T10:59:20.543Z,6.40
2019-02-12T11:01:49.100Z,6.50
2019-02-12T11:04:17.662Z,6.50
2019-02-12T11:06:50.035Z,6.50
2019-02-12T11:09:19.182Z,6.50
2019-02-12T11:11:47.736Z,6.50
2019-02-12T11:14:16.564Z,6.50
2019-02-12T11:16:45.103Z,6.60
2019-02-12T11:19:13.753Z,6.70
2019-02-12T11:21:42.318Z,6.70
2019-02-12T11:24:11.296Z,6.80
2019-02-12T11:26:39.848Z,6.80
2019-02-12T11:29:08.552Z,6.70
2019-02-12T11:31:37.104Z,6.60
2019-02-12T11:34:06.238Z,6.50
2019-02-12T11:36:34.788Z,6.30
2019-02-12T11:39:03.355Z,6.30
2019-02-12T11:41:32.494Z,6.30
2019-02-12T11:44:01.101Z,6.20
2019-02-12T11:46:29.744Z,6.30
2019-02-12T11:48:58.306Z,6.20
2019-02-12T11:51:27.135Z,6.20
2019-02-12T11:53:55.691Z,6.20
2019-02-12T11:56:24.746Z,6.20
2019-02-12T11:58:53.312Z,6.20
2019-02-12T12:01:23.444Z,6.10
2019-02-12T12:03:52.002Z,6.00
2019-02-12T12:06:20.640Z,6.00
2019-02-12T12:08:49.608Z,5.90
2019-02-12T12:11:18.676Z,5.90
2019-02-12T12:13:48.888Z,6.00
2019-02-12T12:16:17.684Z,5.90
2019-02-12T12:18:46.230Z,5.90
2019-02-12T12:21:14.868Z,5.90
2019-02-12T12:23:43.432Z,6.00
2019-02-12T12:26:12.634Z,5.90
2019-02-12T12:28:41.200Z,6.00
2019-02-12T12:31:09.834Z,6.00
2019-02-12T12:33:38.392Z,5.90
2019-02-12T12:36:07.165Z,6.00
2019-02-12T12:38:35.716Z,5.90
2019-02-12T12:41:04.498Z,5.90
2019-02-12T12:43:33.052Z,5.80
2019-02-12T12:46:01.924Z,5.70
2019-02-12T12:48:30.486Z,5.60
2019-02-12T12:50:59.118Z,5.60
2019-02-12T12:53:27.670Z,5.50
2019-02-12T12:55:56.460Z,5.40
2019-02-12T12:58:25.344Z,5.30
2019-02-12T13:00:53.899Z,5.30
2019-02-12T13:03:22.710Z,5.30
2019-02-12T13:05:51.280Z,5.30
2019-02-12T13:08:20.295Z,5.30
2019-02-12T13:10:48.853Z,5.30
2019-02-12T13:13:17.668Z,5.30
2019-02-12T13:15:46.238Z,5.30
2019-02-12T13:18:15.243Z,5.30
2019-02-12T13:20:43.807Z,5.40
2019-02-12T13:23:12.610Z,5.40
2019-02-12T13:25:41.172Z,5.50
2019-02-12T13:28:09.991Z,5.50
2019-02-12T13:30:38.580Z,5.50
2019-02-12T13:33:07.556Z,5.50
2019-02-12T13:35:36.472Z,5.40
2019-02-12T13:38:05.350Z,5.50
2019-02-12T13:40:33.907Z,5.40
2019-02-12T13:43:02.720Z,5.50
2019-02-12T13:45:31.266Z,5.50
2019-02-12T13:48:00.280Z,5.50
2019-02-12T13:50:28.851Z,5.60
2019-02-12T13:52:57.564Z,5.60
2019-02-12T13:55:26.190Z,5.70
2019-02-12T13:57:55.138Z,5.80
2019-02-12T14:00:23.686Z,5.90
2019-02-12T14:02:52.510Z,5.90
2019-02-12T14:05:23.578Z,6.00
2019-02-12T14:07:53.147Z,6.00
2019-02-12T14:10:21.695Z,5.90
2019-02-12T14:12:50.471Z,5.90
2019-02-12T14:15:19.042Z,5.90
2019-02-12T14:17:47.681Z,5.90
2019-02-12T14:20:17.608Z,5.90
2019-02-12T14:22:46.290Z,5.90
2019-02-12T14:25:16.166Z,5.90
2019-02-12T14:27:45.001Z,6.00
2019-02-12T14:30:22.579Z,6.10
2019-02-12T14:32:52.804Z,6.10
2019-02-12T14:35:21.385Z,6.10
2019-02-12T14:37:50.334Z,6.10
2019-02-12T14:40:19.067Z,6.20
2019-02-12T14:42:48.114Z,6.20
2019-02-12T14:45:20.182Z,6.20
2019-02-12T14:47:49.036Z,6.30
2019-02-12T14:50:19.143Z,6.20
2019-02-12T14:52:47.769Z,6.20
2019-02-12T14:55:16.533Z,6.10
2019-02-12T14:57:45.442Z,6.00
2019-02-12T15:00:18.677Z,5.90
2019-02-12T15:02:47.900Z,5.80
2019-02-12T15:05:17.144Z,5.70
2019-02-12T15:07:46.468Z,5.70
2019-02-12T15:10:16.187Z,5.60
2019-02-12T15:12:44.831Z,5.50
2019-02-12T15:15:13.765Z,5.40
2019-02-12T15:17:43.199Z,5.40
2019-02-12T15:20:13.089Z,5.30
2019-02-12T15:22:41.723Z,5.30
2019-02-12T15:25:12.120Z,5.30
2019-02-12T15:27:40.690Z,5.20
2019-02-12T15:30:14.781Z,5.20
2019-02-12T15:32:43.898Z,5.20
2019-02-12T15:35:13.079Z,5.20
2019-02-12T15:37:41.647Z,5.20
2019-02-12T15:40:18.765Z,5.20
2019-02-12T15:42:47.325Z,5.10
2019-02-12T15:45:19.131Z,5.10
2019-02-12T15:47:47.693Z,5.10
2019-02-12T15:50:16.317Z,5.10
2019-02-12T15:52:44.949Z,5.10
2019-02-12T15:55:14.118Z,5.10
2019-02-12T15:57:45.288Z,5.10
2019-02-12T16:00:18.055Z,5.10
2019-02-12T16:02:46.691Z,5.00
2019-02-12T16:05:17.258Z,5.00
2019-02-12T16:07:47.462Z,4.90
2019-02-12T16:10:20.561Z,4.90
2019-02-12T16:12:51.279Z,4.80
2019-02-12T16:15:22.410Z,4.80
2019-02-12T16:17:50.773Z,4.70
2019-02-12T16:20:19.759Z,4.70
2019-02-12T16:22:48.335Z,4.70
2019-02-12T16:25:17.328Z,4.60
2019-02-12T16:27:45.885Z,4.60
2019-02-12T16:30:17.153Z,4.60
2019-02-12T16:32:45.728Z,4.50
2019-02-12T16:35:16.639Z,4.50
2019-02-12T16:37:45.265Z,4.50
2019-02-12T16:40:15.395Z,4.40
2019-02-12T16:42:44.099Z,4.40
2019-02-12T16:45:21.577Z,4.30
2019-02-12T16:47:50.252Z,4.30
2019-02-12T16:50:18.808Z,4.30
2019-02-12T16:52:48.231Z,4.30
2019-02-12T16:55:16.861Z,4.30
2019-02-12T16:57:45.575Z,4.30
2019-02-12T17:00:17.162Z,4.30
2019-02-12T17:02:46.704Z,4.30
2019-02-12T17:05:15.853Z,4.30
2019-02-12T17:07:45.796Z,4.30
2019-02-12T17:10:15.476Z,4.30
2019-02-12T17:12:44.214Z,4.20
2019-02-12T17:15:14.330Z,4.30
2019-02-12T17:17:42.850Z,4.30
2019-02-12T17:20:22.846Z,4.30
2019-02-12T17:22:51.582Z,4.30
2019-02-12T17:25:20.199Z,4.30
2019-02-12T17:27:48.853Z,4.30
2019-02-12T17:30:18.347Z,4.30
2019-02-12T17:32:48.919Z,4.30
2019-02-12T17:35:17.468Z,4.30
2019-02-12T17:37:46.702Z,4.30
2019-02-12T17:40:17.571Z,4.30
2019-02-12T17:42:46.529Z,4.30
2019-02-12T17:45:17.413Z,4.30
2019-02-12T17:47:45.977Z,4.30
2019-02-12T17:50:15.857Z,4.20
2019-02-12T17:52:44.596Z,4.20
2019-02-12T17:55:13.512Z,4.20
2019-02-12T17:57:42.015Z,4.10
2019-02-12T18:00:15.472Z,4.10
2019-02-12T18:02:44.301Z,4.10
2019-02-12T18:05:13.006Z,4.00
2019-02-12T18:07:41.655Z,4.00
2019-02-12T18:10:11.921Z,4.00
2019-02-12T18:12:40.660Z,4.00
2019-02-12T18:15:13.848Z,4.00
2019-02-12T18:17:42.979Z,4.00
2019-02-12T18:20:13.663Z,4.00
2019-02-12T18:22:42.474Z,4.00
2019-02-12T18:25:11.506Z,4.00
2019-02-12T18:27:40.997Z,4.00
2019-02-12T18:30:16.990Z,4.00
2019-02-12T18:32:45.606Z,4.10
2019-02-12T18:35:15.778Z,4.10
2019-02-12T18:37:45.542Z,4.10
2019-02-12T18:40:15.645Z,4.10
2019-02-12T18:42:44.341Z,4.20
2019-02-12T18:45:23.928Z,4.20
2019-02-12T18:47:52.488Z,4.20
2019-02-12T18:50:21.719Z,4.20
2019-02-12T18:52:50.619Z,4.20
2019-02-12T18:55:19.201Z,4.20
2019-02-12T18:57:47.848Z,4.20
2019-02-12T19:00:20.727Z,4.20
2019-02-12T19:02:49.429Z,4.30
2019-02-12T19:05:18.297Z,4.20
2019-02-12T19:07:47.217Z,4.20
2019-02-12T19:10:19.803Z,4.20
2019-02-12T19:12:48.507Z,4.20
2019-02-12T19:15:18.718Z,4.20
2019-02-12T19:17:56.451Z,4.20
2019-02-12T19:20:25.129Z,4.20
2019-02-12T19:22:53.774Z,4.20
2019-02-12T19:25:22.429Z,4.20
2019-02-12T19:27:51.343Z,4.20
2019-02-12T19:30:19.900Z,4.20
2019-02-12T19:32:48.534Z,4.30
2019-02-12T19:35:17.146Z,4.30
2019-02-12T19:37:45.771Z,4.30
2019-02-12T19:40:14.324Z,4.30
2019-02-12T19:42:43.227Z,4.30
2019-02-12T19:45:13.725Z,4.30
2019-02-12T19:47:42.465Z,4.40
2019-02-12T19:50:11.753Z,4.40
2019-02-12T19:52:40.662Z,4.40
2019-02-12T19:55:10.169Z,4.40
2019-02-12T19:57:38.722Z,4.40
2019-02-12T20:00:15.208Z,4.40
2019-02-12T20:02:43.837Z,4.40
2019-02-12T20:05:12.890Z,4.50
2019-02-12T20:07:41.784Z,4.50
2019-02-12T20:10:12.979Z,4.50
2019-02-12T20:12:41.609Z,4.50
2019-02-12T20:15:22.869Z,4.50
2019-02-12T20:17:54.495Z,4.50
2019-02-12T20:20:23.058Z,4.50
2019-02-12T20:22:51.834Z,4.50
2019-02-12T20:25:20.399Z,4.50
2019-02-12T20:27:49.454Z,4.50
2019-02-12T20:30:20.016Z,4.50
2019-02-12T20:32:48.704Z,4.50
2019-02-12T20:35:19.309Z,4.50
2019-02-12T20:37:47.942Z,4.50
2019-02-12T20:40:16.810Z,4.50
2019-02-12T20:42:45.434Z,4.50
2019-02-12T20:45:18.083Z,4.50
2019-02-12T20:47:46.815Z,4.50
2019-02-12T20:50:19.931Z,4.50
2019-02-12T20:52:48.684Z,4.50
2019-02-12T20:55:17.383Z,4.50
2019-02-12T20:57:46.036Z,4.50
2019-02-12T21:00:23.320Z,4.50
2019-02-12T21:02:51.946Z,4.50
2019-02-12T21:05:21.077Z,4.50
2019-02-12T21:07:49.616Z,4.40
2019-02-12T21:10:20.152Z,4.40
2019-02-12T21:12:48.703Z,4.40
2019-02-12T21:15:22.791Z,4.40
2019-02-12T21:17:51.344Z,4.40
2019-02-12T21:20:20.085Z,4.40
2019-02-12T21:22:48.711Z,4.40
2019-02-12T21:25:17.492Z,4.40
2019-02-12T21:27:46.051Z,4.40
2019-02-12T21:30:26.102Z,4.40
2019-02-12T21:32:54.670Z,4.40
2019-02-12T21:35:23.447Z,4.40
2019-02-12T21:37:51.993Z,4.40
2019-02-12T21:40:26.054Z,4.40
2019-02-12T21:42:54.729Z,4.40
2019-02-12T21:45:23.439Z,4.40
2019-02-12T21:47:52.075Z,4.40
2019-02-12T21:50:20.992Z,4.50
2019-02-12T21:52:49.536Z,4.40
2019-02-12T21:55:20.404Z,4.50
2019-02-12T21:57:49.050Z,4.50
2019-02-12T22:00:22.580Z,4.50
2019-02-12T22:02:51.132Z,4.50
2019-02-12T22:05:19.948Z,4.50
2019-02-12T22:07:48.739Z,4.60
2019-02-12T22:10:23.485Z,4.60
2019-02-12T22:12:52.119Z,4.60
2019-02-12T22:15:20.870Z,4.70
2019-02-12T22:17:49.497Z,4.70
2019-02-12T22:20:20.419Z,4.70
2019-02-12T22:22:48.950Z,4.70
2019-02-12T22:25:17.837Z,4.70
2019-02-12T22:27:46.505Z,4.70
2019-02-12T22:30:17.876Z,4.70
2019-02-12T22:32:46.771Z,4.80
2019-02-12T22:35:15.398Z,4.80
2019-02-12T22:37:44.247Z,4.80
2019-02-12T22:40:15.795Z,4.80
2019-02-12T22:42:44.384Z,4.80
2019-02-12T22:45:15.369Z,4.80
2019-02-12T22:47:43.943Z,4.80
2019-02-12T22:50:13.332Z,4.90
2019-02-12T22:52:42.299Z,4.90
2019-02-12T22:55:11.282Z,4.90
2019-02-12T22:57:48.539Z,4.90
2019-02-12T23:00:48.552Z,4.90
2019-02-12T23:03:17.537Z,4.90
2019-02-12T23:05:46.305Z,4.90
2019-02-12T23:08:14.935Z,4.90
2019-02-12T23:10:44.377Z,4.90
2019-02-12T23:13:12.913Z,4.90
2019-02-12T23:15:41.963Z,4.90
2019-02-12T23:18:10.663Z,4.90
2019-02-12T23:20:39.339Z,5.00
2019-02-12T23:23:08.456Z,5.00
2019-02-12T23:25:37.511Z,5.00
2019-02-12T23:28:06.203Z,5.00
2019-02-12T23:30:34.835Z,5.00
2019-02-12T23:33:05.101Z,5.00
2019-02-12T23:35:33.647Z,4.90
2019-02-12T23:38:03.477Z,4.90
2019-02-12T23:40:32.180Z,4.90
2019-02-12T23:43:00.747Z,4.90
2019-02-12T23:45:29.735Z,4.90
2019-02-12T23:47:58.295Z,5.00
2019-02-12T23:50:26.854Z,5.00
2019-02-12T23:52:55.557Z,5.00
2019-02-12T23:55:24.043Z,5.00
2019-02-12T23:57:52.721Z,4.90
